sensor_id;sensor_type;location;lat;lon;timestamp;temperature;humidity
6654;DHT22;3363;50.942;7.034;2023-02-26T00:01:25;4.00;58.10
6654;DHT22;3363;50.942;7.034;2023-02-26T00:03:54;3.90;54.50
6654;DHT22;3363;50.942;7.034;2023-02-26T00:06:21;3.80;58.50
6654;DHT22;3363;50.942;7.034;2023-02-26T00:08:48;3.90;58.80
6654;DHT22;3363;50.942;7.034;2023-02-26T00:11:15;4.00;58.90
6654;DHT22;3363;50.942;7.034;2023-02-26T00:13:42;3.90;58.20
6654;DHT22;3363;50.942;7.034;2023-02-26T00:16:12;4.00;58.50
6654;DHT22;3363;50.942;7.034;2023-02-26T00:18:40;3.90;57.10
6654;DHT22;3363;50.942;7.034;2023-02-26T00:21:07;3.90;58.40
6654;DHT22;3363;50.942;7.034;2023-02-26T00:23:40;3.80;57.00
6654;DHT22;3363;50.942;7.034;2023-02-26T00:26:08;3.90;58.80
6654;DHT22;3363;50.942;7.034;2023-02-26T00:28:35;4.00;58.40
6654;DHT22;3363;50.942;7.034;2023-02-26T00:31:02;4.00;57.20
6654;DHT22;3363;50.942;7.034;2023-02-26T00:33:30;3.90;57.80
6654;DHT22;3363;50.942;7.034;2023-02-26T00:35:59;4.00;58.30
6654;DHT22;3363;50.942;7.034;2023-02-26T00:38:28;4.00;58.60
6654;DHT22;3363;50.942;7.034;2023-02-26T00:40:57;4.00;57.30
6654;DHT22;3363;50.942;7.034;2023-02-26T00:43:24;3.90;58.20
6654;DHT22;3363;50.942;7.034;2023-02-26T00:45:53;4.00;58.40
6654;DHT22;3363;50.942;7.034;2023-02-26T00:48:26;3.90;58.80
6654;DHT22;3363;50.942;7.034;2023-02-26T00:50:58;3.80;59.40
6654;DHT22;3363;50.942;7.034;2023-02-26T00:53:26;3.80;58.70
6654;DHT22;3363;50.942;7.034;2023-02-26T00:55:54;3.90;58.80
6654;DHT22;3363;50.942;7.034;2023-02-26T00:58:20;3.80;58.10
6654;DHT22;3363;50.942;7.034;2023-02-26T01:00:47;3.80;58.70
6654;DHT22;3363;50.942;7.034;2023-02-26T01:03:14;3.90;58.80
6654;DHT22;3363;50.942;7.034;2023-02-26T01:05:41;3.90;58.80
6654;DHT22;3363;50.942;7.034;2023-02-26T01:08:11;3.90;58.80
6654;DHT22;3363;50.942;7.034;2023-02-26T01:10:39;3.90;58.90
6654;DHT22;3363;50.942;7.034;2023-02-26T01:13:06;3.90;59.30
6654;DHT22;3363;50.942;7.034;2023-02-26T01:15:33;3.80;59.00
6654;DHT22;3363;50.942;7.034;2023-02-26T01:18:02;3.80;59.50
6654;DHT22;3363;50.942;7.034;2023-02-26T01:20:32;3.80;58.70
6654;DHT22;3363;50.942;7.034;2023-02-26T01:23:00;3.80;58.40
6654;DHT22;3363;50.942;7.034;2023-02-26T01:25:33;3.70;59.80
6654;DHT22;3363;50.942;7.034;2023-02-26T01:28:02;3.70;59.60
6654;DHT22;3363;50.942;7.034;2023-02-26T01:30:29;3.70;58.60
6654;DHT22;3363;50.942;7.034;2023-02-26T01:32:57;3.60;59.50
6654;DHT22;3363;50.942;7.034;2023-02-26T01:35:31;3.70;60.00
6654;DHT22;3363;50.942;7.034;2023-02-26T01:38:01;3.70;60.00
6654;DHT22;3363;50.942;7.034;2023-02-26T01:40:35;3.70;60.00
6654;DHT22;3363;50.942;7.034;2023-02-26T01:43:06;3.70;59.40
6654;DHT22;3363;50.942;7.034;2023-02-26T01:45:35;3.70;60.20
6654;DHT22;3363;50.942;7.034;2023-02-26T01:48:05;3.70;60.30
6654;DHT22;3363;50.942;7.034;2023-02-26T01:50:33;3.70;60.40
6654;DHT22;3363;50.942;7.034;2023-02-26T01:53:13;3.70;60.20
6654;DHT22;3363;50.942;7.034;2023-02-26T01:55:42;3.70;60.20
6654;DHT22;3363;50.942;7.034;2023-02-26T01:58:09;3.80;60.30
6654;DHT22;3363;50.942;7.034;2023-02-26T02:00:36;3.70;60.30
6654;DHT22;3363;50.942;7.034;2023-02-26T02:03:03;3.70;60.20
6654;DHT22;3363;50.942;7.034;2023-02-26T02:05:31;3.70;60.30
6654;DHT22;3363;50.942;7.034;2023-02-26T02:07:58;3.70;60.30
6654;DHT22;3363;50.942;7.034;2023-02-26T02:10:25;3.70;60.30
6654;DHT22;3363;50.942;7.034;2023-02-26T02:12:55;3.70;60.30
6654;DHT22;3363;50.942;7.034;2023-02-26T02:15:27;3.70;60.40
6654;DHT22;3363;50.942;7.034;2023-02-26T02:17:58;3.60;60.50
6654;DHT22;3363;50.942;7.034;2023-02-26T02:20:48;3.60;60.20
6654;DHT22;3363;50.942;7.034;2023-02-26T02:23:18;3.60;60.30
6654;DHT22;3363;50.942;7.034;2023-02-26T02:25:56;3.40;60.30
6654;DHT22;3363;50.942;7.034;2023-02-26T02:28:36;3.20;59.80
6654;DHT22;3363;50.942;7.034;2023-02-26T02:31:09;3.30;61.40
6654;DHT22;3363;50.942;7.034;2023-02-26T02:33:39;3.40;61.50
6654;DHT22;3363;50.942;7.034;2023-02-26T02:36:09;3.40;61.20
6654;DHT22;3363;50.942;7.034;2023-02-26T02:38:41;3.40;60.20
6654;DHT22;3363;50.942;7.034;2023-02-26T02:41:14;3.40;60.90
6654;DHT22;3363;50.942;7.034;2023-02-26T02:43:42;3.40;61.30
6654;DHT22;3363;50.942;7.034;2023-02-26T02:46:13;3.40;61.20
6654;DHT22;3363;50.942;7.034;2023-02-26T02:48:42;3.50;61.20
6654;DHT22;3363;50.942;7.034;2023-02-26T02:51:11;3.40;61.00
6654;DHT22;3363;50.942;7.034;2023-02-26T02:53:39;3.40;61.20
6654;DHT22;3363;50.942;7.034;2023-02-26T02:56:09;3.40;61.00
6654;DHT22;3363;50.942;7.034;2023-02-26T02:58:40;3.40;61.10
6654;DHT22;3363;50.942;7.034;2023-02-26T03:01:08;3.40;61.10
6654;DHT22;3363;50.942;7.034;2023-02-26T03:03:38;3.40;61.30
6654;DHT22;3363;50.942;7.034;2023-02-26T03:06:08;3.40;61.20
6654;DHT22;3363;50.942;7.034;2023-02-26T03:08:35;3.30;61.00
6654;DHT22;3363;50.942;7.034;2023-02-26T03:11:02;3.30;61.30
6654;DHT22;3363;50.942;7.034;2023-02-26T03:13:29;3.30;61.30
6654;DHT22;3363;50.942;7.034;2023-02-26T03:16:00;3.30;61.20
6654;DHT22;3363;50.942;7.034;2023-02-26T03:18:34;3.20;60.90
6654;DHT22;3363;50.942;7.034;2023-02-26T03:21:07;3.20;61.40
6654;DHT22;3363;50.942;7.034;2023-02-26T03:23:37;3.20;61.40
6654;DHT22;3363;50.942;7.034;2023-02-26T03:26:07;3.30;61.40
6654;DHT22;3363;50.942;7.034;2023-02-26T03:28:37;3.30;61.40
6654;DHT22;3363;50.942;7.034;2023-02-26T03:31:06;3.30;61.30
6654;DHT22;3363;50.942;7.034;2023-02-26T03:33:37;3.20;60.80
6654;DHT22;3363;50.942;7.034;2023-02-26T03:36:07;3.10;61.40
6654;DHT22;3363;50.942;7.034;2023-02-26T03:38:36;3.10;61.30
6654;DHT22;3363;50.942;7.034;2023-02-26T03:41:06;3.20;61.30
6654;DHT22;3363;50.942;7.034;2023-02-26T03:43:36;3.20;61.30
6654;DHT22;3363;50.942;7.034;2023-02-26T03:46:05;3.20;61.30
6654;DHT22;3363;50.942;7.034;2023-02-26T03:48:34;3.20;61.20
6654;DHT22;3363;50.942;7.034;2023-02-26T03:51:02;3.10;60.80
6654;DHT22;3363;50.942;7.034;2023-02-26T03:53:33;3.10;61.20
6654;DHT22;3363;50.942;7.034;2023-02-26T03:56:03;3.10;61.30
6654;DHT22;3363;50.942;7.034;2023-02-26T03:58:31;3.10;61.30
6654;DHT22;3363;50.942;7.034;2023-02-26T04:00:58;3.10;61.30
6654;DHT22;3363;50.942;7.034;2023-02-26T04:03:26;3.10;61.30
6654;DHT22;3363;50.942;7.034;2023-02-26T04:05:54;3.10;61.10
6654;DHT22;3363;50.942;7.034;2023-02-26T04:08:21;3.00;60.50
6654;DHT22;3363;50.942;7.034;2023-02-26T04:10:53;3.00;60.80
6654;DHT22;3363;50.942;7.034;2023-02-26T04:13:20;3.00;61.10
6654;DHT22;3363;50.942;7.034;2023-02-26T04:15:47;3.00;60.90
6654;DHT22;3363;50.942;7.034;2023-02-26T04:18:14;3.00;61.20
6654;DHT22;3363;50.942;7.034;2023-02-26T04:20:40;3.00;61.10
6654;DHT22;3363;50.942;7.034;2023-02-26T04:23:07;3.00;61.00
6654;DHT22;3363;50.942;7.034;2023-02-26T04:25:34;3.00;60.90
6654;DHT22;3363;50.942;7.034;2023-02-26T04:28:02;3.00;61.10
6654;DHT22;3363;50.942;7.034;2023-02-26T04:30:28;3.00;61.10
6654;DHT22;3363;50.942;7.034;2023-02-26T04:32:55;2.90;61.00
6654;DHT22;3363;50.942;7.034;2023-02-26T04:35:22;2.90;61.10
6654;DHT22;3363;50.942;7.034;2023-02-26T04:37:48;2.90;61.10
6654;DHT22;3363;50.942;7.034;2023-02-26T04:40:15;2.90;61.30
6654;DHT22;3363;50.942;7.034;2023-02-26T04:42:42;2.80;60.80
6654;DHT22;3363;50.942;7.034;2023-02-26T04:45:10;2.70;61.20
6654;DHT22;3363;50.942;7.034;2023-02-26T04:47:36;2.70;61.60
6654;DHT22;3363;50.942;7.034;2023-02-26T04:50:03;2.70;61.50
6654;DHT22;3363;50.942;7.034;2023-02-26T04:52:30;2.80;61.50
6654;DHT22;3363;50.942;7.034;2023-02-26T04:54:57;2.80;61.40
6654;DHT22;3363;50.942;7.034;2023-02-26T04:57:23;2.80;61.00
6654;DHT22;3363;50.942;7.034;2023-02-26T04:59:50;2.80;61.30
6654;DHT22;3363;50.942;7.034;2023-02-26T05:02:18;2.80;61.20
6654;DHT22;3363;50.942;7.034;2023-02-26T05:04:45;2.70;60.90
6654;DHT22;3363;50.942;7.034;2023-02-26T05:07:12;2.70;61.00
6654;DHT22;3363;50.942;7.034;2023-02-26T05:09:38;2.70;61.00
6654;DHT22;3363;50.942;7.034;2023-02-26T05:12:05;2.70;61.00
6654;DHT22;3363;50.942;7.034;2023-02-26T05:14:32;2.70;61.00
6654;DHT22;3363;50.942;7.034;2023-02-26T05:16:58;2.70;60.90
6654;DHT22;3363;50.942;7.034;2023-02-26T05:19:26;2.70;60.90
6654;DHT22;3363;50.942;7.034;2023-02-26T05:21:53;2.70;61.00
6654;DHT22;3363;50.942;7.034;2023-02-26T05:24:20;2.60;59.20
6654;DHT22;3363;50.942;7.034;2023-02-26T05:26:46;2.50;60.90
6654;DHT22;3363;50.942;7.034;2023-02-26T05:29:13;2.50;60.40
6654;DHT22;3363;50.942;7.034;2023-02-26T05:31:40;2.50;60.60
6654;DHT22;3363;50.942;7.034;2023-02-26T05:34:07;2.50;61.20
6654;DHT22;3363;50.942;7.034;2023-02-26T05:36:35;2.60;61.30
6654;DHT22;3363;50.942;7.034;2023-02-26T05:39:02;2.60;60.90
6654;DHT22;3363;50.942;7.034;2023-02-26T05:41:28;2.70;60.90
6654;DHT22;3363;50.942;7.034;2023-02-26T05:43:55;2.70;60.80
6654;DHT22;3363;50.942;7.034;2023-02-26T05:46:22;2.60;60.80
6654;DHT22;3363;50.942;7.034;2023-02-26T05:48:48;2.60;60.60
6654;DHT22;3363;50.942;7.034;2023-02-26T05:51:15;2.50;60.20
6654;DHT22;3363;50.942;7.034;2023-02-26T05:53:43;2.40;60.90
6654;DHT22;3363;50.942;7.034;2023-02-26T05:56:10;2.40;61.20
6654;DHT22;3363;50.942;7.034;2023-02-26T05:58:37;2.30;60.60
6654;DHT22;3363;50.942;7.034;2023-02-26T06:01:04;2.30;60.50
6654;DHT22;3363;50.942;7.034;2023-02-26T06:03:30;2.30;60.80
6654;DHT22;3363;50.942;7.034;2023-02-26T06:05:57;2.30;61.40
6654;DHT22;3363;50.942;7.034;2023-02-26T06:08:24;2.40;60.00
6654;DHT22;3363;50.942;7.034;2023-02-26T06:10:52;2.20;61.20
6654;DHT22;3363;50.942;7.034;2023-02-26T06:13:19;2.30;61.30
6654;DHT22;3363;50.942;7.034;2023-02-26T06:15:46;2.30;61.10
6654;DHT22;3363;50.942;7.034;2023-02-26T06:18:12;2.30;60.20
6654;DHT22;3363;50.942;7.034;2023-02-26T06:20:39;2.30;61.20
6654;DHT22;3363;50.942;7.034;2023-02-26T06:23:06;2.30;61.30
6654;DHT22;3363;50.942;7.034;2023-02-26T06:25:32;2.30;60.80
6654;DHT22;3363;50.942;7.034;2023-02-26T06:28:00;2.30;61.10
6654;DHT22;3363;50.942;7.034;2023-02-26T06:30:27;2.30;61.10
6654;DHT22;3363;50.942;7.034;2023-02-26T06:32:54;2.30;61.20
6654;DHT22;3363;50.942;7.034;2023-02-26T06:35:20;2.30;61.30
6654;DHT22;3363;50.942;7.034;2023-02-26T06:37:47;2.30;61.30
6654;DHT22;3363;50.942;7.034;2023-02-26T06:40:14;2.10;60.60
6654;DHT22;3363;50.942;7.034;2023-02-26T06:42:40;2.20;61.40
6654;DHT22;3363;50.942;7.034;2023-02-26T06:45:09;2.30;61.50
6654;DHT22;3363;50.942;7.034;2023-02-26T06:47:36;2.20;60.80
6654;DHT22;3363;50.942;7.034;2023-02-26T06:50:03;2.20;61.40
6654;DHT22;3363;50.942;7.034;2023-02-26T06:52:30;2.20;61.80
6654;DHT22;3363;50.942;7.034;2023-02-26T06:54:57;2.30;61.70
6654;DHT22;3363;50.942;7.034;2023-02-26T06:57:23;2.30;61.40
6654;DHT22;3363;50.942;7.034;2023-02-26T06:59:50;2.30;60.70
6654;DHT22;3363;50.942;7.034;2023-02-26T07:02:18;2.20;60.60
6654;DHT22;3363;50.942;7.034;2023-02-26T07:04:45;2.10;61.80
6654;DHT22;3363;50.942;7.034;2023-02-26T07:07:12;2.10;61.40
6654;DHT22;3363;50.942;7.034;2023-02-26T07:09:39;1.90;61.50
6654;DHT22;3363;50.942;7.034;2023-02-26T07:12:06;1.80;61.60
6654;DHT22;3363;50.942;7.034;2023-02-26T07:14:33;1.70;62.20
6654;DHT22;3363;50.942;7.034;2023-02-26T07:17:00;1.80;62.30
6654;DHT22;3363;50.942;7.034;2023-02-26T07:19:28;1.60;62.10
6654;DHT22;3363;50.942;7.034;2023-02-26T07:21:55;1.50;61.60
6654;DHT22;3363;50.942;7.034;2023-02-26T07:24:22;1.70;62.60
6654;DHT22;3363;50.942;7.034;2023-02-26T07:26:48;1.70;62.70
6654;DHT22;3363;50.942;7.034;2023-02-26T07:29:15;1.60;62.80
6654;DHT22;3363;50.942;7.034;2023-02-26T07:31:42;1.60;62.80
6654;DHT22;3363;50.942;7.034;2023-02-26T07:34:08;1.50;62.30
6654;DHT22;3363;50.942;7.034;2023-02-26T07:36:36;1.60;63.80
6654;DHT22;3363;50.942;7.034;2023-02-26T07:39:03;1.50;63.00
6654;DHT22;3363;50.942;7.034;2023-02-26T07:41:30;1.60;63.50
6654;DHT22;3363;50.942;7.034;2023-02-26T07:43:56;1.60;64.10
6654;DHT22;3363;50.942;7.034;2023-02-26T07:46:23;1.70;63.90
6654;DHT22;3363;50.942;7.034;2023-02-26T07:48:50;1.80;63.90
6654;DHT22;3363;50.942;7.034;2023-02-26T07:51:16;1.80;63.90
6654;DHT22;3363;50.942;7.034;2023-02-26T07:53:44;1.80;63.70
6654;DHT22;3363;50.942;7.034;2023-02-26T07:56:11;1.80;63.00
6654;DHT22;3363;50.942;7.034;2023-02-26T07:58:38;1.80;63.70
6654;DHT22;3363;50.942;7.034;2023-02-26T08:01:04;1.90;62.80
6654;DHT22;3363;50.942;7.034;2023-02-26T08:03:31;1.80;62.80
6654;DHT22;3363;50.942;7.034;2023-02-26T08:05:58;1.90;63.90
6654;DHT22;3363;50.942;7.034;2023-02-26T08:08:25;1.90;63.50
6654;DHT22;3363;50.942;7.034;2023-02-26T08:10:53;1.90;63.80
6654;DHT22;3363;50.942;7.034;2023-02-26T08:13:19;1.70;61.50
6654;DHT22;3363;50.942;7.034;2023-02-26T08:15:46;1.80;63.50
6654;DHT22;3363;50.942;7.034;2023-02-26T08:18:13;1.80;62.90
6654;DHT22;3363;50.942;7.034;2023-02-26T08:20:40;1.90;63.10
6654;DHT22;3363;50.942;7.034;2023-02-26T08:23:06;2.00;63.20
6654;DHT22;3363;50.942;7.034;2023-02-26T08:25:33;2.00;62.30
6654;DHT22;3363;50.942;7.034;2023-02-26T08:28:01;2.00;63.10
6654;DHT22;3363;50.942;7.034;2023-02-26T08:30:28;2.10;63.40
6654;DHT22;3363;50.942;7.034;2023-02-26T08:32:54;2.10;63.20
6654;DHT22;3363;50.942;7.034;2023-02-26T08:35:21;2.20;62.70
6654;DHT22;3363;50.942;7.034;2023-02-26T08:37:48;2.20;62.30
6654;DHT22;3363;50.942;7.034;2023-02-26T08:40:15;2.30;62.30
6654;DHT22;3363;50.942;7.034;2023-02-26T08:42:41;2.40;61.50
6654;DHT22;3363;50.942;7.034;2023-02-26T08:45:10;2.40;62.10
6654;DHT22;3363;50.942;7.034;2023-02-26T08:47:36;2.50;62.60
6654;DHT22;3363;50.942;7.034;2023-02-26T08:50:06;2.70;62.20
6654;DHT22;3363;50.942;7.034;2023-02-26T08:52:33;2.50;60.80
6654;DHT22;3363;50.942;7.034;2023-02-26T08:54:59;2.50;61.20
6654;DHT22;3363;50.942;7.034;2023-02-26T08:57:26;2.30;59.20
6654;DHT22;3363;50.942;7.034;2023-02-26T08:59:53;2.20;61.00
6654;DHT22;3363;50.942;7.034;2023-02-26T09:02:21;2.30;60.40
6654;DHT22;3363;50.942;7.034;2023-02-26T09:04:47;2.40;59.30
6654;DHT22;3363;50.942;7.034;2023-02-26T09:07:14;2.60;57.60
6654;DHT22;3363;50.942;7.034;2023-02-26T09:09:41;2.60;58.60
6654;DHT22;3363;50.942;7.034;2023-02-26T09:12:07;2.70;59.90
6654;DHT22;3363;50.942;7.034;2023-02-26T09:14:34;2.80;58.70
6654;DHT22;3363;50.942;7.034;2023-02-26T09:17:01;2.80;59.00
6654;DHT22;3363;50.942;7.034;2023-02-26T09:19:29;3.00;59.60
6654;DHT22;3363;50.942;7.034;2023-02-26T09:21:55;3.00;58.50
6654;DHT22;3363;50.942;7.034;2023-02-26T09:24:22;3.10;59.10
6654;DHT22;3363;50.942;7.034;2023-02-26T09:26:49;3.20;58.10
6654;DHT22;3363;50.942;7.034;2023-02-26T09:29:15;3.30;58.20
6654;DHT22;3363;50.942;7.034;2023-02-26T09:31:42;3.40;57.70
6654;DHT22;3363;50.942;7.034;2023-02-26T09:34:09;3.40;57.30
6654;DHT22;3363;50.942;7.034;2023-02-26T09:36:38;3.20;55.10
6654;DHT22;3363;50.942;7.034;2023-02-26T09:39:05;3.20;56.20
6654;DHT22;3363;50.942;7.034;2023-02-26T09:41:33;3.10;54.50
6654;DHT22;3363;50.942;7.034;2023-02-26T09:46:45;3.00;55.00
6654;DHT22;3363;50.942;7.034;2023-02-26T09:49:17;3.10;55.50
6654;DHT22;3363;50.942;7.034;2023-02-26T09:51:48;3.20;54.80
6654;DHT22;3363;50.942;7.034;2023-02-26T09:54:17;3.30;54.10
6654;DHT22;3363;50.942;7.034;2023-02-26T09:56:45;3.40;53.80
6654;DHT22;3363;50.942;7.034;2023-02-26T09:59:12;3.50;54.50
6654;DHT22;3363;50.942;7.034;2023-02-26T10:01:39;3.50;53.80
6654;DHT22;3363;50.942;7.034;2023-02-26T10:04:10;3.60;53.10
6654;DHT22;3363;50.942;7.034;2023-02-26T10:06:43;3.60;51.30
6654;DHT22;3363;50.942;7.034;2023-02-26T10:09:19;3.40;49.50
6654;DHT22;3363;50.942;7.034;2023-02-26T10:11:50;3.40;48.40
6654;DHT22;3363;50.942;7.034;2023-02-26T10:14:31;3.50;49.00
6654;DHT22;3363;50.942;7.034;2023-02-26T10:17:15;3.50;51.50
6654;DHT22;3363;50.942;7.034;2023-02-26T10:19:44;3.60;50.90
6654;DHT22;3363;50.942;7.034;2023-02-26T10:22:15;3.60;52.60
6654;DHT22;3363;50.942;7.034;2023-02-26T10:24:45;3.60;49.00
6654;DHT22;3363;50.942;7.034;2023-02-26T10:27:13;3.50;51.40
6654;DHT22;3363;50.942;7.034;2023-02-26T10:29:43;3.50;47.30
6654;DHT22;3363;50.942;7.034;2023-02-26T10:32:15;3.50;51.10
6654;DHT22;3363;50.942;7.034;2023-02-26T10:34:45;3.70;51.70
6654;DHT22;3363;50.942;7.034;2023-02-26T10:37:15;3.90;49.60
6654;DHT22;3363;50.942;7.034;2023-02-26T10:39:46;4.00;51.20
6654;DHT22;3363;50.942;7.034;2023-02-26T10:42:16;4.00;48.50
6654;DHT22;3363;50.942;7.034;2023-02-26T10:44:46;3.70;47.50
6654;DHT22;3363;50.942;7.034;2023-02-26T10:47:17;3.90;46.80
6654;DHT22;3363;50.942;7.034;2023-02-26T10:49:50;4.00;49.00
6654;DHT22;3363;50.942;7.034;2023-02-26T10:52:18;3.90;47.90
6654;DHT22;3363;50.942;7.034;2023-02-26T10:54:54;3.30;44.50
6654;DHT22;3363;50.942;7.034;2023-02-26T10:57:26;3.30;49.30
6654;DHT22;3363;50.942;7.034;2023-02-26T10:59:54;3.10;49.00
6654;DHT22;3363;50.942;7.034;2023-02-26T11:02:32;3.00;47.90
6654;DHT22;3363;50.942;7.034;2023-02-26T11:05:00;3.00;47.00
6654;DHT22;3363;50.942;7.034;2023-02-26T11:07:27;3.00;46.30
6654;DHT22;3363;50.942;7.034;2023-02-26T11:09:56;3.10;44.90
6654;DHT22;3363;50.942;7.034;2023-02-26T11:12:24;3.10;49.00
6654;DHT22;3363;50.942;7.034;2023-02-26T11:14:52;3.20;45.80
6654;DHT22;3363;50.942;7.034;2023-02-26T11:17:19;3.30;49.10
6654;DHT22;3363;50.942;7.034;2023-02-26T11:19:49;3.30;48.70
6654;DHT22;3363;50.942;7.034;2023-02-26T11:22:17;3.20;46.70
6654;DHT22;3363;50.942;7.034;2023-02-26T11:24:44;3.20;46.00
6654;DHT22;3363;50.942;7.034;2023-02-26T11:27:14;3.20;50.80
6654;DHT22;3363;50.942;7.034;2023-02-26T11:29:42;3.20;49.20
6654;DHT22;3363;50.942;7.034;2023-02-26T11:32:12;3.20;48.00
6654;DHT22;3363;50.942;7.034;2023-02-26T11:34:44;3.30;49.80
6654;DHT22;3363;50.942;7.034;2023-02-26T11:37:11;3.30;46.70
6654;DHT22;3363;50.942;7.034;2023-02-26T11:39:39;3.30;49.20
6654;DHT22;3363;50.942;7.034;2023-02-26T11:42:06;3.20;47.20
6654;DHT22;3363;50.942;7.034;2023-02-26T11:44:36;3.20;45.50
6654;DHT22;3363;50.942;7.034;2023-02-26T11:47:04;3.10;45.90
6654;DHT22;3363;50.942;7.034;2023-02-26T11:49:32;3.10;46.10
6654;DHT22;3363;50.942;7.034;2023-02-26T11:52:04;3.10;45.20
6654;DHT22;3363;50.942;7.034;2023-02-26T11:54:30;3.20;45.20
6654;DHT22;3363;50.942;7.034;2023-02-26T11:57:00;3.30;46.40
6654;DHT22;3363;50.942;7.034;2023-02-26T11:59:29;3.60;47.00
6654;DHT22;3363;50.942;7.034;2023-02-26T12:02:00;3.90;44.50
6654;DHT22;3363;50.942;7.034;2023-02-26T12:04:27;4.20;46.60
6654;DHT22;3363;50.942;7.034;2023-02-26T12:06:54;4.20;44.40
6654;DHT22;3363;50.942;7.034;2023-02-26T12:09:21;4.50;45.10
6654;DHT22;3363;50.942;7.034;2023-02-26T12:11:53;4.50;47.40
6654;DHT22;3363;50.942;7.034;2023-02-26T12:14:36;4.40;47.10
6654;DHT22;3363;50.942;7.034;2023-02-26T12:17:10;4.30;46.40
6654;DHT22;3363;50.942;7.034;2023-02-26T12:19:43;4.40;46.40
6654;DHT22;3363;50.942;7.034;2023-02-26T12:22:19;4.50;46.40
6654;DHT22;3363;50.942;7.034;2023-02-26T12:24:54;4.40;45.40
6654;DHT22;3363;50.942;7.034;2023-02-26T12:27:27;4.30;45.70
6654;DHT22;3363;50.942;7.034;2023-02-26T12:32:50;4.00;46.90
6654;DHT22;3363;50.942;7.034;2023-02-26T12:35:36;3.90;45.60
6654;DHT22;3363;50.942;7.034;2023-02-26T12:38:09;3.90;47.80
6654;DHT22;3363;50.942;7.034;2023-02-26T12:43:29;4.10;46.90
6654;DHT22;3363;50.942;7.034;2023-02-26T12:46:01;4.10;45.80
6654;DHT22;3363;50.942;7.034;2023-02-26T12:51:14;4.10;42.70
6654;DHT22;3363;50.942;7.034;2023-02-26T12:53:50;4.20;45.10
6654;DHT22;3363;50.942;7.034;2023-02-26T12:56:23;4.30;45.10
6654;DHT22;3363;50.942;7.034;2023-02-26T12:58:57;4.30;44.80
6654;DHT22;3363;50.942;7.034;2023-02-26T13:07:19;4.40;42.30
6654;DHT22;3363;50.942;7.034;2023-02-26T13:09:54;4.40;43.90
6654;DHT22;3363;50.942;7.034;2023-02-26T13:12:26;4.30;44.20
6654;DHT22;3363;50.942;7.034;2023-02-26T13:14:59;4.10;41.50
6654;DHT22;3363;50.942;7.034;2023-02-26T13:17:30;4.10;43.70
6654;DHT22;3363;50.942;7.034;2023-02-26T13:20:02;4.30;42.00
6654;DHT22;3363;50.942;7.034;2023-02-26T13:22:31;4.30;43.40
6654;DHT22;3363;50.942;7.034;2023-02-26T13:25:00;4.30;42.70
6654;DHT22;3363;50.942;7.034;2023-02-26T13:27:28;4.40;42.60
6654;DHT22;3363;50.942;7.034;2023-02-26T13:30:00;4.50;42.90
6654;DHT22;3363;50.942;7.034;2023-02-26T13:32:30;4.70;45.50
6654;DHT22;3363;50.942;7.034;2023-02-26T13:34:58;4.60;43.70
6654;DHT22;3363;50.942;7.034;2023-02-26T13:37:28;4.60;42.50
6654;DHT22;3363;50.942;7.034;2023-02-26T13:40:10;4.40;44.30
6654;DHT22;3363;50.942;7.034;2023-02-26T13:42:42;4.20;42.60
6654;DHT22;3363;50.942;7.034;2023-02-26T13:45:20;4.30;44.30
6654;DHT22;3363;50.942;7.034;2023-02-26T13:47:55;4.20;43.80
6654;DHT22;3363;50.942;7.034;2023-02-26T13:50:26;4.30;42.70
6654;DHT22;3363;50.942;7.034;2023-02-26T13:52:54;4.50;41.10
6654;DHT22;3363;50.942;7.034;2023-02-26T13:55:40;4.60;41.80
6654;DHT22;3363;50.942;7.034;2023-02-26T13:58:17;4.80;42.10
6654;DHT22;3363;50.942;7.034;2023-02-26T14:00:45;4.70;43.10
6654;DHT22;3363;50.942;7.034;2023-02-26T14:03:27;4.80;43.00
6654;DHT22;3363;50.942;7.034;2023-02-26T14:06:05;4.70;40.60
6654;DHT22;3363;50.942;7.034;2023-02-26T14:14:13;4.70;40.00
6654;DHT22;3363;50.942;7.034;2023-02-26T14:16:42;4.70;40.80
6654;DHT22;3363;50.942;7.034;2023-02-26T14:19:20;4.60;42.10
6654;DHT22;3363;50.942;7.034;2023-02-26T14:21:48;4.70;41.60
6654;DHT22;3363;50.942;7.034;2023-02-26T14:24:16;4.70;42.10
6654;DHT22;3363;50.942;7.034;2023-02-26T14:26:45;4.50;39.40
6654;DHT22;3363;50.942;7.034;2023-02-26T14:29:15;4.50;40.80
6654;DHT22;3363;50.942;7.034;2023-02-26T14:31:49;4.50;42.90
6654;DHT22;3363;50.942;7.034;2023-02-26T14:34:19;4.60;41.00
6654;DHT22;3363;50.942;7.034;2023-02-26T14:36:48;4.80;43.20
6654;DHT22;3363;50.942;7.034;2023-02-26T14:39:21;4.80;43.20
6654;DHT22;3363;50.942;7.034;2023-02-26T14:41:49;4.90;41.00
6654;DHT22;3363;50.942;7.034;2023-02-26T14:44:21;4.90;41.10
6654;DHT22;3363;50.942;7.034;2023-02-26T14:46:49;4.80;40.70
6654;DHT22;3363;50.942;7.034;2023-02-26T14:49:17;4.80;41.60
6654;DHT22;3363;50.942;7.034;2023-02-26T14:51:48;4.70;38.70
6654;DHT22;3363;50.942;7.034;2023-02-26T14:54:19;4.80;41.20
6654;DHT22;3363;50.942;7.034;2023-02-26T14:56:51;4.70;41.00
6654;DHT22;3363;50.942;7.034;2023-02-26T14:59:26;4.80;42.30
6654;DHT22;3363;50.942;7.034;2023-02-26T15:01:59;4.80;41.80
6654;DHT22;3363;50.942;7.034;2023-02-26T15:04:35;4.70;41.40
6654;DHT22;3363;50.942;7.034;2023-02-26T15:07:23;4.70;40.80
6654;DHT22;3363;50.942;7.034;2023-02-26T15:09:58;4.60;39.20
6654;DHT22;3363;50.942;7.034;2023-02-26T15:12:32;4.60;40.20
6654;DHT22;3363;50.942;7.034;2023-02-26T15:15:05;4.60;41.00
6654;DHT22;3363;50.942;7.034;2023-02-26T15:20:25;4.50;39.70
6654;DHT22;3363;50.942;7.034;2023-02-26T15:22:59;4.50;39.60
6654;DHT22;3363;50.942;7.034;2023-02-26T15:25:29;4.50;39.60
6654;DHT22;3363;50.942;7.034;2023-02-26T15:27:56;4.50;41.60
6654;DHT22;3363;50.942;7.034;2023-02-26T15:30:24;4.50;40.30
6654;DHT22;3363;50.942;7.034;2023-02-26T15:32:55;4.50;39.50
6654;DHT22;3363;50.942;7.034;2023-02-26T15:35:22;4.40;40.30
6654;DHT22;3363;50.942;7.034;2023-02-26T15:37:49;4.40;41.40
6654;DHT22;3363;50.942;7.034;2023-02-26T15:40:17;4.50;40.00
6654;DHT22;3363;50.942;7.034;2023-02-26T15:42:44;4.50;41.60
6654;DHT22;3363;50.942;7.034;2023-02-26T15:45:15;4.50;39.80
6654;DHT22;3363;50.942;7.034;2023-02-26T15:47:45;4.40;39.60
6654;DHT22;3363;50.942;7.034;2023-02-26T15:50:13;4.30;37.70
6654;DHT22;3363;50.942;7.034;2023-02-26T15:52:41;4.30;38.80
6654;DHT22;3363;50.942;7.034;2023-02-26T15:55:12;4.30;40.70
6654;DHT22;3363;50.942;7.034;2023-02-26T15:57:40;4.30;38.00
6654;DHT22;3363;50.942;7.034;2023-02-26T16:00:07;4.20;38.30
6654;DHT22;3363;50.942;7.034;2023-02-26T16:02:34;4.30;40.90
6654;DHT22;3363;50.942;7.034;2023-02-26T16:05:03;4.20;39.80
6654;DHT22;3363;50.942;7.034;2023-02-26T16:07:30;4.20;40.10
6654;DHT22;3363;50.942;7.034;2023-02-26T16:10:02;4.20;40.10
6654;DHT22;3363;50.942;7.034;2023-02-26T16:12:31;4.20;41.00
6654;DHT22;3363;50.942;7.034;2023-02-26T16:15:00;4.20;41.00
6654;DHT22;3363;50.942;7.034;2023-02-26T16:17:29;4.10;40.70
6654;DHT22;3363;50.942;7.034;2023-02-26T16:19:57;4.10;43.10
6654;DHT22;3363;50.942;7.034;2023-02-26T16:22:26;4.10;40.00
6654;DHT22;3363;50.942;7.034;2023-02-26T16:24:56;4.00;39.60
6654;DHT22;3363;50.942;7.034;2023-02-26T16:27:24;4.00;40.60
6654;DHT22;3363;50.942;7.034;2023-02-26T16:29:53;4.00;40.50
6654;DHT22;3363;50.942;7.034;2023-02-26T16:32:20;4.10;43.10
6654;DHT22;3363;50.942;7.034;2023-02-26T16:34:49;4.00;42.90
6654;DHT22;3363;50.942;7.034;2023-02-26T16:37:24;4.00;43.10
6654;DHT22;3363;50.942;7.034;2023-02-26T16:39:54;3.80;41.40
6654;DHT22;3363;50.942;7.034;2023-02-26T16:42:22;3.90;43.30
6654;DHT22;3363;50.942;7.034;2023-02-26T16:45:00;3.80;41.20
6654;DHT22;3363;50.942;7.034;2023-02-26T16:47:27;3.70;40.50
6654;DHT22;3363;50.942;7.034;2023-02-26T16:49:55;3.70;42.10
6654;DHT22;3363;50.942;7.034;2023-02-26T16:52:23;3.70;43.00
6654;DHT22;3363;50.942;7.034;2023-02-26T16:54:57;3.70;40.50